FAMM

Mmabatho International Airport

Mafeking, South Africa
METAR FAMM 171400Z 30004KT 9999 FEW045TCU SCT045 35/06 Q1017 NOSIG
Observed Flight Rules
Dec-17 @ 14:00 UTC (28 minutes ago) Visual Flight Rules
Wind Visibility Clouds
300° at 4 knots 10,000+ meters
  • Few at 4,500' AGL
  • Scattered at 4,500' AGL
Temperatures Readings
Current 35°C / 95°F
Dewpoint 6°C / 43°F
Humidity 16%
Altimeter 30.03" Hg
Pressure 1017 hPa
Elevation 1277
METAR FAMM 171400Z 30004KT 9999 FEW045TCU SCT045 35/06 Q1017 NOSIG
Observed Flight Rules
Dec-17 @ 14:00 UTC
(28 minutes ago)
VFR
Wind Visibility
300° at 4 knots 10,000+ meters
Clouds
  • Few at 4,500' AGL
  • Scattered at 4,500' AGL
Temperature Dewpoint
35°C / 95°F 6°C / 43°F
Humidity Altimeter Pressure
16% 30.03" Hg 1017 hPa